BRIO2: Bridgeport 4E

                                SHEF ID:       BRIO2     Canadian River at Bridgeport, OK
STATION TYPE:
Regulating: Stage = 15.00, Flow = 8372

STAGE RIV-FLOW BAT-LOAD
ft cfs volt
Ccp-Rev Ccp-Rev Ccp-Rev
(America/Chicago)
10/29 00:00 10.37 300 12.54
10/29 01:00 10.37 300 12.50
10/29 02:00 10.37 300 12.48
10/29 03:00 10.36 296 12.46
10/29 04:00 10.35 292 12.46
10/29 05:00 10.37 300 12.44
10/29 06:00 10.38 304 12.44
10/29 07:00 10.37 300 12.44
10/29 08:00 10.38 304 12.45
10/29 09:00 10.36 296 12.46
10/29 10:00 10.38 304 12.48
10/29 11:00 10.38 304 12.57
10/29 12:00 10.33 284 12.53
10/29 13:00 10.38 304 12.54
10/29 14:00 10.35 292 12.93
10/29 15:00 10.39 308 13.09
10/29 16:00 10.39 308 13.08
10/29 17:00 10.40 313 12.95
10/29 18:00 10.41 317 12.84
10/29 19:00 10.41 317 12.60
10/29 20:00 10.41 317 12.48
10/29 21:00 10.40 313 12.47
10/29 22:00 10.40 313 12.47
10/29 23:00 10.40 313 12.47
Data processed at Mon 30Oct2023 04:55 GMT

Parsing this webpage?

Checkout our new Data API! CWMSDataAPI (CDA)

All information presented herein is the property of the government of the United States of America and may be revised or deleted at any time without prior notice. Dissemination of this information without the expressed written consent of the Public Affairs Office, Tulsa District U.S. Army Corps of Engineers is strictly prohibited. These data are gathered electronically and, as presented, have NOT undergone any form of quality control. These data are NOT guaranteed to be valid or correct.